Weather observations for the past three days for
Victoria, Victoria Regional Airport
Metric (Imperial)
Date Time (cdt) Wind (kph) Vis. (km) Weather Sky Cond. Temperature (ºC) Relative Humidity Wind Chill (°C) Heat Index (°C) Pressure Precipitation (cm)
Air Dwpt 6 hour altimeter (cm) sea level (mb) 1 hr 3 hr 6 hr
Max. Min.
31 20:51 SE 19 16.09 Fair CLR 28.9 24.4 77% 34 76.05 1013.6
31 19:51 SE 22 16.09 Fair CLR 31.1 23.3 63% 36 76.02 1013.2
31 18:51 E 26 G 39 16.09 Fair CLR 33.9 20.6 38.9 33.3 46% 37 75.97 1012.7
31 17:51 SE 24 G 37 16.09 Fair CLR 36.1 22.2 45% 41 75.97 1012.5
31 16:51 SE 24 G 31 16.09 Fair CLR 36.7 21.1 40% 41 75.97 1012.7
31 15:51 SE 31 G 44 16.09 Fair CLR 36.1 22.2 45% 41 76.05 1013.5
31 14:51 SE 24 16.09 Fair CLR 35.6 21.7 44% 40 76.1 1014.2
31 13:51 SE 11 G 31 16.09 Fair CLR 38.3 20.6 36% 42 76.12 1014.7
31 12:51 Calm 16.09 Fair CLR 37.8 21.1 37.8 23.9 38% 42 76.2 1015.5
31 11:51 Vrbl 7 16.09 Fair CLR 36.1 22.2 45% 41 76.23 1015.9
31 10:51 SE 15 16.09 Fair CLR 34.4 22.2 49% 39 76.25 1016.2
31 09:51 SE 9 16.09 Fair CLR 31.7 23.3 61% 37 76.23 1016.0
31 08:51 Calm 16.09 Fair CLR 28.9 25 80% 34 76.2 1015.6
31 07:51 Calm 12.87 Fair CLR 25.6 23.9 90% 27 76.15 1015.0
31 06:51 NE 6 12.87 Partly Cloudy SCT021 SCT031 23.9 23.3 25.6 23.9 96% 23 76.12 1014.7
31 05:51 NE 7 14.48 A Few Clouds FEW029 24.4 23.9 97% 24 76.1 1014.4
31 04:51 NE 6 11.27 Fair CLR 24.4 23.9 97% 24 76.12 1014.5
31 03:51 NE 6 14.48 Fair CLR 24.4 23.3 94% 24 76.12 1014.4
31 02:51 S 7 16.09 Fair CLR 25.6 24.4 93% 27 76.1 1014.5
31 01:51 SE 11 16.09 A Few Clouds FEW022 25.6 24.4 93% 27 76.15 1015.0
31 00:51 SE 11 16.09 A Few Clouds FEW017 25.6 24.4 33.3 25.6 93% 27 76.17 1015.1
30 23:51 SE 7 16.09 Fair CLR 26.1 24.4 90% 28 76.15 1014.9
30 22:51 SE 11 16.09 Fair CLR 26.7 24.4 87% 30 76.12 1014.7
30 21:51 SE 11 16.09 Fair CLR 27.2 24.4 85% 31 76.1 1014.3
30 20:51 SE 17 16.09 Fair CLR 28.3 24.4 79% 33 76.02 1013.4
30 19:51 SE 19 G 31 16.09 Fair CLR 30.6 23.3 65% 35 76 1012.9
30 18:51 SE 24 16.09 Fair CLR 33.3 22.8 38.3 31.7 54% 38 75.97 1012.7
30 17:51 SE 31 G 43 16.09 Fair CLR 35 21.7 46% 39 75.95 1012.5
30 16:51 S 24 G 37 16.09 A Few Clouds FEW110 36.7 22.2 43% 42 75.97 1012.4
30 15:51 SE 20 16.09 Partly Cloudy SCT120 37.2 21.7 41% 42 76.02 1013.4
30 14:51 SE 28 16.09 Fair CLR 32.8 22.8 56% 38 76.1 1014.4
30 13:51 SE 13 16.09 Partly Cloudy SCT055 SCT070 37.8 21.1 38% 42 76.15 1014.8
30 12:51 Calm 16.09 Fair CLR 37.2 21.7 37.2 22.8 41% 42 76.2 1015.6
30 11:51 S 15 16.09 A Few Clouds FEW044 35 21.7 46% 39 76.25 1016.3
30 10:51 S 11 16.09 A Few Clouds FEW029 33.9 23.3 54% 40 76.28 1016.7
30 09:51 S 7 16.09 A Few Clouds FEW020 31.1 23.9 66% 37 76.28 1016.7
30 08:51 SE 7 16.09 Fair CLR 27.8 25 85% 32 76.25 1016.3
30 07:51 NE 6 9.66 Fog/Mist CLR 24.4 23.9 97% 24 76.2 1015.8
30 06:51 Calm 9.66 Fog/Mist CLR 22.8 22.2 25.6 22.8 96% 76.17 1015.3
30 05:51 Calm 11.27 Fair CLR 22.8 22.8 100% 76.17 1015.4
30 04:51 E 6 12.87 Fair CLR 23.3 22.8 97% 76.17 1015.2
30 03:51 Calm 14.48 Fair CLR 23.3 22.8 97% 76.17 1015.2
30 02:51 Calm 16.09 Fair CLR 24.4 23.9 97% 24 76.17 1015.2
30 01:51 S 7 16.09 Fair CLR 25 23.9 94% 26 76.2 1015.4
30 00:51 S 9 16.09 Fair CLR 25.6 23.9 33.3 25.6 90% 27 76.23 1015.8
29 23:51 S 7 16.09 Fair CLR 26.1 23.9 88% 28 76.23 1015.9
29 22:51 S 11 16.09 Fair CLR 26.7 23.9 85% 29 76.2 1015.7
29 21:51 S 11 16.09 Fair CLR 27.8 23.9 79% 32 76.2 1015.5
29 20:51 S 15 16.09 Fair CLR 28.9 23.3 72% 33 76.12 1014.7
29 19:51 S 13 16.09 Fair CLR 30.6 22.2 61% 34 76.07 1014.2
29 18:51 S 26 G 35 16.09 Fair CLR 33.3 22.8 38.3 33.3 54% 38 76.07 1014.1
29 17:51 S 24 G 43 16.09 A Few Clouds FEW047 35 22.8 49% 40 76.07 1013.9
29 16:51 S 28 G 41 16.09 Fair CLR 36.1 22.8 46% 42 76.07 1013.8
29 15:51 S 30 G 44 16.09 Fair CLR 36.7 22.8 45% 42 76.12 1014.5
29 14:51 SE 33 G 52 16.09 A Few Clouds and Breezy FEW043 FEW050 35.6 21.7 44% 40 76.2 1015.6
29 13:51 Calm 16.09 Partly Cloudy SCT047 SCT060 37.2 22.2 42% 42 76.23 1016.1
29 12:51 SE 15 16.09 Mostly Cloudy BKN042 BKN075 36.1 23.3 36.1 23.3 48% 42 76.3 1016.9
29 11:51 S 13 16.09 Partly Cloudy SCT037 36.1 23.3 48% 42 76.35 1017.6
29 10:51 S 7 16.09 A Few Clouds FEW070 32.8 24.4 61% 39 76.35 1017.8
29 09:51 Calm 16.09 Partly Cloudy SCT018 32.2 25 66% 39 76.35 1017.7
29 08:51 E 6 16.09 Fair CLR 27.2 24.4 85% 31 76.35 1017.6
29 07:51 NE 6 16.09 Fair CLR 24.4 23.3 94% 24 76.33 1017.2
29 06:51 NE 7 14.48 Fair CLR 23.3 22.8 26.1 23.3 97% 76.28 1016.8
29 05:51 NE 6 16.09 Fair CLR 23.3 22.8 97% 76.28 1016.8
29 04:51 NE 7 16.09 Fair CLR 23.9 22.8 94% 23 76.28 1016.6
29 03:51 NE 7 14.48 Fair CLR 24.4 23.9 97% 24 76.23 1016.1
29 02:51 E 7 16.09 Fair CLR 25 23.9 94% 26 76.23 1016.0
29 01:51 NW 6 16.09 Fair CLR 25 23.9 94% 26 76.23 1016.0
29 00:51 Calm 16.09 Fair CLR 26.1 24.4 31.7 26.1 90% 28 76.2 1015.6
28 23:51 SE 7 16.09 Fair CLR 26.7 25 90% 30 76.23 1015.8
28 22:51 E 6 16.09 Fair CLR 27.2 24.4 85% 31 76.28 1016.6
28 21:51 S 19 16.09 Fair CLR 28.3 24.4 79% 33 76.15 1014.9
Date Time (cdt) Wind (kph) Vis. (km) Weather Sky Cond. Air Dwpt Max. Min. Relative Humidity Wind Chill (°C) Heat Index (°C) altimeter (cm) sea level (mb) 1 hr 3 hr 6 hr
6 hour
Temperature (ºC) Pressure Precipitation (cm)